sensor_id;sensor_type;location;lat;lon;timestamp;P1;durP1;ratioP1;P2;durP2;ratioP2
36371;SDS011;22398;51.346;12.372;2024-03-08T00:02:09;43.85;;;19.30;;
36371;SDS011;22398;51.346;12.372;2024-03-08T00:07:11;40.83;;;18.92;;
36371;SDS011;22398;51.346;12.372;2024-03-08T00:12:14;40.88;;;19.75;;
36371;SDS011;22398;51.346;12.372;2024-03-08T00:17:17;39.40;;;19.10;;
36371;SDS011;22398;51.346;12.372;2024-03-08T00:22:18;42.05;;;19.02;;
36371;SDS011;22398;51.346;12.372;2024-03-08T00:27:20;40.30;;;19.75;;
36371;SDS011;22398;51.346;12.372;2024-03-08T00:32:22;43.22;;;18.73;;
36371;SDS011;22398;51.346;12.372;2024-03-08T00:37:25;38.97;;;19.08;;
36371;SDS011;22398;51.346;12.372;2024-03-08T00:42:27;37.75;;;18.60;;
36371;SDS011;22398;51.346;12.372;2024-03-08T00:47:30;39.70;;;19.75;;
36371;SDS011;22398;51.346;12.372;2024-03-08T00:52:32;38.92;;;17.77;;
36371;SDS011;22398;51.346;12.372;2024-03-08T00:57:35;41.88;;;18.70;;
36371;SDS011;22398;51.346;12.372;2024-03-08T01:02:38;40.15;;;17.73;;
36371;SDS011;22398;51.346;12.372;2024-03-08T01:07:40;39.38;;;18.10;;
36371;SDS011;22398;51.346;12.372;2024-03-08T01:12:42;47.38;;;19.63;;
36371;SDS011;22398;51.346;12.372;2024-03-08T01:17:45;43.00;;;20.15;;
36371;SDS011;22398;51.346;12.372;2024-03-08T01:22:47;45.93;;;20.57;;
36371;SDS011;22398;51.346;12.372;2024-03-08T01:27:51;44.95;;;20.73;;
36371;SDS011;22398;51.346;12.372;2024-03-08T01:32:56;47.10;;;18.25;;
36371;SDS011;22398;51.346;12.372;2024-03-08T01:38:00;48.40;;;21.23;;
36371;SDS011;22398;51.346;12.372;2024-03-08T01:43:16;39.80;;;19.25;;
36371;SDS011;22398;51.346;12.372;2024-03-08T01:53:26;44.25;;;19.15;;
36371;SDS011;22398;51.346;12.372;2024-03-08T01:58:29;48.85;;;20.73;;
36371;SDS011;22398;51.346;12.372;2024-03-08T02:03:35;27.60;;;13.68;;
36371;SDS011;22398;51.346;12.372;2024-03-08T02:08:38;50.17;;;20.48;;
36371;SDS011;22398;51.346;12.372;2024-03-08T02:13:41;40.90;;;19.17;;
36371;SDS011;22398;51.346;12.372;2024-03-08T02:18:46;43.45;;;18.42;;
36371;SDS011;22398;51.346;12.372;2024-03-08T02:23:50;48.80;;;18.27;;
36371;SDS011;22398;51.346;12.372;2024-03-08T02:28:54;41.83;;;18.75;;
36371;SDS011;22398;51.346;12.372;2024-03-08T02:33:58;43.60;;;18.50;;
36371;SDS011;22398;51.346;12.372;2024-03-08T02:39:02;37.88;;;17.73;;
36371;SDS011;22398;51.346;12.372;2024-03-08T02:44:07;42.58;;;18.73;;
36371;SDS011;22398;51.346;12.372;2024-03-08T02:49:10;36.42;;;17.33;;
36371;SDS011;22398;51.346;12.372;2024-03-08T02:54:15;43.53;;;19.52;;
36371;SDS011;22398;51.346;12.372;2024-03-08T03:04:22;38.38;;;19.02;;
36371;SDS011;22398;51.346;12.372;2024-03-08T03:09:27;40.22;;;18.25;;
36371;SDS011;22398;51.346;12.372;2024-03-08T03:14:30;40.35;;;18.90;;
36371;SDS011;22398;51.346;12.372;2024-03-08T03:19:33;42.20;;;18.90;;
36371;SDS011;22398;51.346;12.372;2024-03-08T03:24:39;45.38;;;18.67;;
36371;SDS011;22398;51.346;12.372;2024-03-08T03:29:44;40.78;;;17.73;;
36371;SDS011;22398;51.346;12.372;2024-03-08T03:34:48;41.95;;;17.80;;
36371;SDS011;22398;51.346;12.372;2024-03-08T03:39:55;40.58;;;18.70;;
36371;SDS011;22398;51.346;12.372;2024-03-08T03:44:59;43.95;;;17.25;;
36371;SDS011;22398;51.346;12.372;2024-03-08T03:50:04;39.38;;;18.67;;
36371;SDS011;22398;51.346;12.372;2024-03-08T03:55:12;41.92;;;19.17;;
36371;SDS011;22398;51.346;12.372;2024-03-08T04:05:19;40.90;;;18.25;;
36371;SDS011;22398;51.346;12.372;2024-03-08T04:10:24;35.30;;;18.00;;
36371;SDS011;22398;51.346;12.372;2024-03-08T04:15:27;36.63;;;17.50;;
36371;SDS011;22398;51.346;12.372;2024-03-08T04:20:30;39.63;;;18.52;;
36371;SDS011;22398;51.346;12.372;2024-03-08T04:25:35;41.45;;;18.90;;
36371;SDS011;22398;51.346;12.372;2024-03-08T04:30:38;43.60;;;19.87;;
36371;SDS011;22398;51.346;12.372;2024-03-08T04:35:42;43.28;;;18.80;;
36371;SDS011;22398;51.346;12.372;2024-03-08T04:40:49;46.13;;;19.92;;
36371;SDS011;22398;51.346;12.372;2024-03-08T04:45:52;37.17;;;16.58;;
36371;SDS011;22398;51.346;12.372;2024-03-08T04:50:55;45.30;;;18.80;;
36371;SDS011;22398;51.346;12.372;2024-03-08T04:56:00;44.45;;;19.33;;
36371;SDS011;22398;51.346;12.372;2024-03-08T05:01:08;46.85;;;20.60;;
36371;SDS011;22398;51.346;12.372;2024-03-08T05:06:12;51.07;;;20.83;;
36371;SDS011;22398;51.346;12.372;2024-03-08T05:11:17;41.60;;;18.35;;
36371;SDS011;22398;51.346;12.372;2024-03-08T05:16:20;50.37;;;19.73;;
36371;SDS011;22398;51.346;12.372;2024-03-08T05:21:25;54.88;;;20.52;;
36371;SDS011;22398;51.346;12.372;2024-03-08T05:26:32;43.53;;;18.05;;
36371;SDS011;22398;51.346;12.372;2024-03-08T05:31:36;42.60;;;19.95;;
36371;SDS011;22398;51.346;12.372;2024-03-08T05:36:45;47.40;;;20.73;;
36371;SDS011;22398;51.346;12.372;2024-03-08T05:41:52;49.47;;;20.38;;
36371;SDS011;22398;51.346;12.372;2024-03-08T05:46:56;47.97;;;20.10;;
36371;SDS011;22398;51.346;12.372;2024-03-08T05:52:00;54.35;;;21.52;;
36371;SDS011;22398;51.346;12.372;2024-03-08T05:57:04;51.55;;;20.02;;
36371;SDS011;22398;51.346;12.372;2024-03-08T06:02:08;46.25;;;19.77;;
36371;SDS011;22398;51.346;12.372;2024-03-08T06:07:11;49.75;;;22.00;;
36371;SDS011;22398;51.346;12.372;2024-03-08T06:12:16;53.38;;;21.45;;
36371;SDS011;22398;51.346;12.372;2024-03-08T06:17:20;50.72;;;22.65;;
36371;SDS011;22398;51.346;12.372;2024-03-08T06:22:27;52.70;;;21.63;;
36371;SDS011;22398;51.346;12.372;2024-03-08T06:27:33;57.80;;;23.23;;
36371;SDS011;22398;51.346;12.372;2024-03-08T06:32:36;54.85;;;22.50;;
36371;SDS011;22398;51.346;12.372;2024-03-08T06:37:40;52.58;;;21.27;;
36371;SDS011;22398;51.346;12.372;2024-03-08T06:42:45;48.30;;;21.33;;
36371;SDS011;22398;51.346;12.372;2024-03-08T06:47:48;50.00;;;22.00;;
36371;SDS011;22398;51.346;12.372;2024-03-08T06:52:52;52.58;;;21.15;;
36371;SDS011;22398;51.346;12.372;2024-03-08T06:57:57;45.53;;;20.65;;
36371;SDS011;22398;51.346;12.372;2024-03-08T07:03:00;46.93;;;21.20;;
36371;SDS011;22398;51.346;12.372;2024-03-08T07:08:04;50.25;;;22.88;;
36371;SDS011;22398;51.346;12.372;2024-03-08T07:13:09;45.88;;;21.90;;
36371;SDS011;22398;51.346;12.372;2024-03-08T07:18:12;47.88;;;23.75;;
36371;SDS011;22398;51.346;12.372;2024-03-08T07:23:17;53.53;;;22.67;;
36371;SDS011;22398;51.346;12.372;2024-03-08T07:28:35;49.08;;;21.25;;
36371;SDS011;22398;51.346;12.372;2024-03-08T07:33:38;50.30;;;22.33;;
36371;SDS011;22398;51.346;12.372;2024-03-08T07:38:43;42.38;;;20.17;;
36371;SDS011;22398;51.346;12.372;2024-03-08T07:43:49;45.63;;;21.33;;
36371;SDS011;22398;51.346;12.372;2024-03-08T07:48:53;42.00;;;19.90;;
36371;SDS011;22398;51.346;12.372;2024-03-08T07:53:56;44.55;;;22.98;;
36371;SDS011;22398;51.346;12.372;2024-03-08T07:59:01;49.92;;;22.77;;
36371;SDS011;22398;51.346;12.372;2024-03-08T08:09:08;45.83;;;21.42;;
36371;SDS011;22398;51.346;12.372;2024-03-08T08:14:17;44.17;;;21.92;;
36371;SDS011;22398;51.346;12.372;2024-03-08T08:19:22;44.42;;;20.92;;
36371;SDS011;22398;51.346;12.372;2024-03-08T08:24:28;46.28;;;22.17;;
36371;SDS011;22398;51.346;12.372;2024-03-08T08:29:32;51.40;;;22.77;;
36371;SDS011;22398;51.346;12.372;2024-03-08T08:34:37;45.63;;;20.15;;
36371;SDS011;22398;51.346;12.372;2024-03-08T08:39:40;45.60;;;21.73;;
36371;SDS011;22398;51.346;12.372;2024-03-08T08:44:44;51.20;;;24.25;;
36371;SDS011;22398;51.346;12.372;2024-03-08T08:49:48;44.03;;;23.03;;
36371;SDS011;22398;51.346;12.372;2024-03-08T08:54:52;44.80;;;21.92;;
36371;SDS011;22398;51.346;12.372;2024-03-08T08:59:57;42.72;;;22.80;;
36371;SDS011;22398;51.346;12.372;2024-03-08T09:05:00;50.22;;;23.38;;
36371;SDS011;22398;51.346;12.372;2024-03-08T09:10:04;43.65;;;22.10;;
36371;SDS011;22398;51.346;12.372;2024-03-08T09:15:20;35.15;;;20.30;;
36371;SDS011;22398;51.346;12.372;2024-03-08T09:20:23;42.88;;;21.60;;
36371;SDS011;22398;51.346;12.372;2024-03-08T09:25:26;47.67;;;21.13;;
36371;SDS011;22398;51.346;12.372;2024-03-08T09:30:31;45.38;;;20.50;;
36371;SDS011;22398;51.346;12.372;2024-03-08T09:40:38;39.55;;;20.90;;
36371;SDS011;22398;51.346;12.372;2024-03-08T09:45:45;41.47;;;21.27;;
36371;SDS011;22398;51.346;12.372;2024-03-08T09:50:53;44.08;;;21.30;;
36371;SDS011;22398;51.346;12.372;2024-03-08T09:55:57;47.55;;;22.35;;
36371;SDS011;22398;51.346;12.372;2024-03-08T10:01:03;36.67;;;20.17;;
36371;SDS011;22398;51.346;12.372;2024-03-08T10:06:07;44.40;;;20.73;;
36371;SDS011;22398;51.346;12.372;2024-03-08T10:11:11;39.95;;;20.65;;
36371;SDS011;22398;51.346;12.372;2024-03-08T10:16:16;41.05;;;20.23;;
36371;SDS011;22398;51.346;12.372;2024-03-08T10:21:20;39.30;;;19.65;;
36371;SDS011;22398;51.346;12.372;2024-03-08T10:26:24;41.08;;;20.85;;
36371;SDS011;22398;51.346;12.372;2024-03-08T10:31:28;38.20;;;20.20;;
36371;SDS011;22398;51.346;12.372;2024-03-08T10:36:33;37.60;;;20.25;;
36371;SDS011;22398;51.346;12.372;2024-03-08T10:41:39;40.33;;;20.05;;
36371;SDS011;22398;51.346;12.372;2024-03-08T10:46:50;36.53;;;18.60;;
36371;SDS011;22398;51.346;12.372;2024-03-08T10:52:04;39.72;;;19.10;;
36371;SDS011;22398;51.346;12.372;2024-03-08T10:57:09;39.08;;;18.65;;
36371;SDS011;22398;51.346;12.372;2024-03-08T11:02:19;34.30;;;18.15;;
36371;SDS011;22398;51.346;12.372;2024-03-08T11:07:23;35.00;;;18.50;;
36371;SDS011;22398;51.346;12.372;2024-03-08T11:12:29;35.58;;;18.38;;
36371;SDS011;22398;51.346;12.372;2024-03-08T11:17:46;37.03;;;18.60;;
36371;SDS011;22398;51.346;12.372;2024-03-08T11:22:51;34.00;;;18.73;;
36371;SDS011;22398;51.346;12.372;2024-03-08T11:28:06;36.42;;;18.42;;
36371;SDS011;22398;51.346;12.372;2024-03-08T11:33:15;43.20;;;20.57;;
36371;SDS011;22398;51.346;12.372;2024-03-08T11:38:20;34.78;;;17.67;;
36371;SDS011;22398;51.346;12.372;2024-03-08T11:43:24;36.05;;;18.33;;
36371;SDS011;22398;51.346;12.372;2024-03-08T11:48:28;32.55;;;18.10;;
36371;SDS011;22398;51.346;12.372;2024-03-08T11:53:33;35.42;;;17.58;;
36371;SDS011;22398;51.346;12.372;2024-03-08T11:58:37;35.70;;;19.27;;
36371;SDS011;22398;51.346;12.372;2024-03-08T12:03:43;31.38;;;17.92;;
36371;SDS011;22398;51.346;12.372;2024-03-08T12:08:46;36.67;;;17.80;;
36371;SDS011;22398;51.346;12.372;2024-03-08T12:13:50;35.60;;;17.42;;
36371;SDS011;22398;51.346;12.372;2024-03-08T12:18:56;34.57;;;17.27;;
36371;SDS011;22398;51.346;12.372;2024-03-08T12:24:03;34.63;;;17.35;;
36371;SDS011;22398;51.346;12.372;2024-03-08T12:29:16;35.80;;;19.60;;
36371;SDS011;22398;51.346;12.372;2024-03-08T12:34:23;37.33;;;19.02;;
36371;SDS011;22398;51.346;12.372;2024-03-08T12:39:26;39.53;;;20.40;;
36371;SDS011;22398;51.346;12.372;2024-03-08T12:44:29;39.22;;;20.65;;
36371;SDS011;22398;51.346;12.372;2024-03-08T12:49:34;38.35;;;19.98;;
36371;SDS011;22398;51.346;12.372;2024-03-08T12:54:37;39.28;;;20.65;;
36371;SDS011;22398;51.346;12.372;2024-03-08T12:59:40;35.22;;;18.63;;
36371;SDS011;22398;51.346;12.372;2024-03-08T13:04:45;35.78;;;19.88;;
36371;SDS011;22398;51.346;12.372;2024-03-08T13:09:56;37.67;;;20.88;;
36371;SDS011;22398;51.346;12.372;2024-03-08T13:15:01;43.33;;;21.42;;
36371;SDS011;22398;51.346;12.372;2024-03-08T13:20:08;39.50;;;20.55;;
36371;SDS011;22398;51.346;12.372;2024-03-08T13:25:31;34.13;;;20.05;;
36371;SDS011;22398;51.346;12.372;2024-03-08T13:30:34;33.30;;;19.00;;
36371;SDS011;22398;51.346;12.372;2024-03-08T13:35:39;39.67;;;21.10;;
36371;SDS011;22398;51.346;12.372;2024-03-08T13:45:46;33.58;;;18.80;;
36371;SDS011;22398;51.346;12.372;2024-03-08T13:50:50;35.97;;;20.23;;
36371;SDS011;22398;51.346;12.372;2024-03-08T13:55:53;39.05;;;19.83;;
36371;SDS011;22398;51.346;12.372;2024-03-08T14:00:58;39.47;;;18.92;;
36371;SDS011;22398;51.346;12.372;2024-03-08T14:06:03;38.95;;;19.65;;
36371;SDS011;22398;51.346;12.372;2024-03-08T14:11:09;45.15;;;21.98;;
36371;SDS011;22398;51.346;12.372;2024-03-08T14:16:15;42.45;;;21.05;;
36371;SDS011;22398;51.346;12.372;2024-03-08T14:21:19;37.65;;;19.70;;
36371;SDS011;22398;51.346;12.372;2024-03-08T14:26:23;39.08;;;21.70;;
36371;SDS011;22398;51.346;12.372;2024-03-08T14:31:27;37.97;;;20.90;;
36371;SDS011;22398;51.346;12.372;2024-03-08T14:36:32;42.08;;;20.65;;
36371;SDS011;22398;51.346;12.372;2024-03-08T14:41:35;42.08;;;20.42;;
36371;SDS011;22398;51.346;12.372;2024-03-08T14:46:38;36.80;;;21.35;;
36371;SDS011;22398;51.346;12.372;2024-03-08T14:51:45;37.33;;;20.77;;
36371;SDS011;22398;51.346;12.372;2024-03-08T14:56:48;37.85;;;19.77;;
36371;SDS011;22398;51.346;12.372;2024-03-08T15:01:52;39.30;;;20.57;;
36371;SDS011;22398;51.346;12.372;2024-03-08T15:06:57;35.40;;;19.38;;
36371;SDS011;22398;51.346;12.372;2024-03-08T15:12:00;42.83;;;17.95;;
36371;SDS011;22398;51.346;12.372;2024-03-08T15:17:04;37.65;;;19.20;;
36371;SDS011;22398;51.346;12.372;2024-03-08T15:22:13;38.38;;;18.92;;
36371;SDS011;22398;51.346;12.372;2024-03-08T15:27:17;38.17;;;19.83;;
36371;SDS011;22398;51.346;12.372;2024-03-08T15:32:20;40.83;;;19.38;;
36371;SDS011;22398;51.346;12.372;2024-03-08T15:37:25;34.67;;;19.08;;
36371;SDS011;22398;51.346;12.372;2024-03-08T15:42:29;33.10;;;18.27;;
36371;SDS011;22398;51.346;12.372;2024-03-08T15:47:32;38.55;;;18.92;;
36371;SDS011;22398;51.346;12.372;2024-03-08T15:52:36;36.63;;;18.70;;
36371;SDS011;22398;51.346;12.372;2024-03-08T15:57:41;34.67;;;18.70;;
36371;SDS011;22398;51.346;12.372;2024-03-08T16:02:44;33.63;;;18.52;;
36371;SDS011;22398;51.346;12.372;2024-03-08T16:07:53;39.80;;;18.13;;
36371;SDS011;22398;51.346;12.372;2024-03-08T16:12:56;37.00;;;19.00;;
36371;SDS011;22398;51.346;12.372;2024-03-08T16:18:02;33.85;;;18.15;;
36371;SDS011;22398;51.346;12.372;2024-03-08T16:23:08;37.30;;;18.30;;
36371;SDS011;22398;51.346;12.372;2024-03-08T16:28:12;40.65;;;19.02;;
36371;SDS011;22398;51.346;12.372;2024-03-08T16:33:16;33.25;;;18.65;;
36371;SDS011;22398;51.346;12.372;2024-03-08T16:38:21;35.97;;;18.95;;
36371;SDS011;22398;51.346;12.372;2024-03-08T16:43:24;33.07;;;17.63;;
36371;SDS011;22398;51.346;12.372;2024-03-08T16:48:27;38.03;;;19.90;;
36371;SDS011;22398;51.346;12.372;2024-03-08T16:53:33;35.38;;;18.00;;
36371;SDS011;22398;51.346;12.372;2024-03-08T16:58:36;35.95;;;18.40;;
36371;SDS011;22398;51.346;12.372;2024-03-08T17:03:39;37.15;;;18.17;;
36371;SDS011;22398;51.346;12.372;2024-03-08T17:08:58;39.03;;;18.30;;
36371;SDS011;22398;51.346;12.372;2024-03-08T17:14:01;32.22;;;17.70;;
36371;SDS011;22398;51.346;12.372;2024-03-08T17:19:06;36.35;;;16.98;;
36371;SDS011;22398;51.346;12.372;2024-03-08T17:24:11;34.72;;;17.42;;
36371;SDS011;22398;51.346;12.372;2024-03-08T17:29:18;37.08;;;18.00;;
36371;SDS011;22398;51.346;12.372;2024-03-08T17:34:22;36.58;;;16.88;;
36371;SDS011;22398;51.346;12.372;2024-03-08T17:39:30;37.03;;;18.05;;
36371;SDS011;22398;51.346;12.372;2024-03-08T17:44:35;35.65;;;18.25;;
36371;SDS011;22398;51.346;12.372;2024-03-08T17:49:39;37.50;;;18.08;;
36371;SDS011;22398;51.346;12.372;2024-03-08T17:54:45;34.20;;;16.02;;
36371;SDS011;22398;51.346;12.372;2024-03-08T17:59:48;35.13;;;17.35;;
36371;SDS011;22398;51.346;12.372;2024-03-08T18:04:52;36.05;;;17.77;;
36371;SDS011;22398;51.346;12.372;2024-03-08T18:09:57;41.15;;;19.48;;
36371;SDS011;22398;51.346;12.372;2024-03-08T18:15:00;37.97;;;18.07;;
36371;SDS011;22398;51.346;12.372;2024-03-08T18:20:04;49.28;;;19.55;;
36371;SDS011;22398;51.346;12.372;2024-03-08T18:25:13;38.90;;;20.02;;
36371;SDS011;22398;51.346;12.372;2024-03-08T18:30:20;37.75;;;19.52;;
36371;SDS011;22398;51.346;12.372;2024-03-08T18:35:23;44.10;;;20.65;;
36371;SDS011;22398;51.346;12.372;2024-03-08T18:40:28;41.47;;;21.88;;
36371;SDS011;22398;51.346;12.372;2024-03-08T18:45:32;48.50;;;22.60;;
36371;SDS011;22398;51.346;12.372;2024-03-08T18:50:36;47.97;;;23.08;;
36371;SDS011;22398;51.346;12.372;2024-03-08T18:55:41;48.28;;;23.38;;
36371;SDS011;22398;51.346;12.372;2024-03-08T19:00:46;50.28;;;22.83;;
36371;SDS011;22398;51.346;12.372;2024-03-08T19:05:51;43.75;;;22.52;;
36371;SDS011;22398;51.346;12.372;2024-03-08T19:10:57;47.77;;;22.30;;
36371;SDS011;22398;51.346;12.372;2024-03-08T19:16:00;50.47;;;24.02;;
36371;SDS011;22398;51.346;12.372;2024-03-08T19:21:04;56.60;;;25.40;;
36371;SDS011;22398;51.346;12.372;2024-03-08T19:26:08;47.55;;;22.60;;
36371;SDS011;22398;51.346;12.372;2024-03-08T19:31:13;54.92;;;23.15;;
36371;SDS011;22398;51.346;12.372;2024-03-08T19:36:18;51.05;;;24.50;;
36371;SDS011;22398;51.346;12.372;2024-03-08T19:41:22;62.55;;;25.17;;
36371;SDS011;22398;51.346;12.372;2024-03-08T19:46:26;58.55;;;26.40;;
36371;SDS011;22398;51.346;12.372;2024-03-08T19:51:30;60.38;;;28.00;;
36371;SDS011;22398;51.346;12.372;2024-03-08T19:56:37;50.53;;;25.73;;
36371;SDS011;22398;51.346;12.372;2024-03-08T20:01:40;55.53;;;26.63;;
36371;SDS011;22398;51.346;12.372;2024-03-08T20:06:44;59.63;;;26.00;;
36371;SDS011;22398;51.346;12.372;2024-03-08T20:11:49;49.40;;;25.88;;
36371;SDS011;22398;51.346;12.372;2024-03-08T20:16:52;53.33;;;26.53;;
36371;SDS011;22398;51.346;12.372;2024-03-08T20:21:56;55.80;;;24.75;;
36371;SDS011;22398;51.346;12.372;2024-03-08T20:27:01;56.78;;;27.85;;
36371;SDS011;22398;51.346;12.372;2024-03-08T20:32:05;62.90;;;29.48;;
36371;SDS011;22398;51.346;12.372;2024-03-08T20:37:08;59.88;;;25.65;;
36371;SDS011;22398;51.346;12.372;2024-03-08T20:42:13;58.90;;;28.02;;
36371;SDS011;22398;51.346;12.372;2024-03-08T20:47:16;60.92;;;27.70;;
36371;SDS011;22398;51.346;12.372;2024-03-08T20:52:23;53.78;;;28.00;;
36371;SDS011;22398;51.346;12.372;2024-03-08T20:57:27;71.88;;;29.95;;
36371;SDS011;22398;51.346;12.372;2024-03-08T21:02:31;63.80;;;29.48;;
36371;SDS011;22398;51.346;12.372;2024-03-08T21:07:34;65.82;;;30.48;;
36371;SDS011;22398;51.346;12.372;2024-03-08T21:12:40;65.00;;;30.25;;
36371;SDS011;22398;51.346;12.372;2024-03-08T21:17:46;61.42;;;29.45;;
36371;SDS011;22398;51.346;12.372;2024-03-08T21:22:49;76.88;;;33.15;;
36371;SDS011;22398;51.346;12.372;2024-03-08T21:27:54;69.28;;;30.63;;
36371;SDS011;22398;51.346;12.372;2024-03-08T21:33:00;66.43;;;29.92;;
36371;SDS011;22398;51.346;12.372;2024-03-08T21:38:06;68.13;;;31.90;;
36371;SDS011;22398;51.346;12.372;2024-03-08T21:43:11;70.32;;;29.30;;
36371;SDS011;22398;51.346;12.372;2024-03-08T21:48:14;67.78;;;29.95;;
36371;SDS011;22398;51.346;12.372;2024-03-08T21:53:18;68.60;;;31.88;;
36371;SDS011;22398;51.346;12.372;2024-03-08T22:03:38;66.97;;;30.95;;
36371;SDS011;22398;51.346;12.372;2024-03-08T22:08:42;63.90;;;29.73;;
36371;SDS011;22398;51.346;12.372;2024-03-08T22:13:47;64.90;;;29.50;;
36371;SDS011;22398;51.346;12.372;2024-03-08T22:18:51;61.50;;;29.70;;
36371;SDS011;22398;51.346;12.372;2024-03-08T22:23:54;55.63;;;27.05;;
36371;SDS011;22398;51.346;12.372;2024-03-08T22:28:59;66.50;;;28.73;;
36371;SDS011;22398;51.346;12.372;2024-03-08T22:34:02;59.35;;;26.60;;
36371;SDS011;22398;51.346;12.372;2024-03-08T22:39:07;47.80;;;22.35;;
36371;SDS011;22398;51.346;12.372;2024-03-08T22:44:13;61.30;;;26.13;;
36371;SDS011;22398;51.346;12.372;2024-03-08T22:49:16;53.25;;;24.50;;
36371;SDS011;22398;51.346;12.372;2024-03-08T22:54:19;50.47;;;22.67;;
36371;SDS011;22398;51.346;12.372;2024-03-08T22:59:26;51.45;;;23.23;;
36371;SDS011;22398;51.346;12.372;2024-03-08T23:04:29;53.83;;;23.88;;
36371;SDS011;22398;51.346;12.372;2024-03-08T23:09:32;49.63;;;23.30;;
36371;SDS011;22398;51.346;12.372;2024-03-08T23:14:38;59.03;;;24.95;;
36371;SDS011;22398;51.346;12.372;2024-03-08T23:19:41;57.87;;;26.90;;
36371;SDS011;22398;51.346;12.372;2024-03-08T23:24:45;51.57;;;25.57;;
36371;SDS011;22398;51.346;12.372;2024-03-08T23:29:51;49.67;;;23.15;;
36371;SDS011;22398;51.346;12.372;2024-03-08T23:34:54;60.13;;;25.88;;
36371;SDS011;22398;51.346;12.372;2024-03-08T23:39:57;55.45;;;23.65;;
36371;SDS011;22398;51.346;12.372;2024-03-08T23:45:02;54.92;;;23.50;;
36371;SDS011;22398;51.346;12.372;2024-03-08T23:50:06;54.10;;;23.55;;
36371;SDS011;22398;51.346;12.372;2024-03-08T23:55:10;53.60;;;23.88;;
